Time;durP1;ratioP1;P1;durP2;ratioP2;P2;SDS_P1;SDS_P2;PMS_P1;PMS_P2;Temp;Humidity;BMP_temperature;BMP_pressure;BME280_temperature;BME280_humidity;BME280_pressure;Samples;Min_cycle;Max_cycle;Signal;HPM_P1;HPM_P2
2023/03/28 00:00:57;;;;;;;54.13;48.20;;;27.50;99.90;;;;;;5041426;28;20079;-71
2023/03/28 00:03:26;;;;;;;49.22;42.10;;;27.50;99.90;;;;;;5051226;28;20033;-72
2023/03/28 00:05:56;;;;;;;42.50;33.10;;;27.50;99.90;;;;;;5059918;28;20024;-70
2023/03/28 00:08:22;;;;;;;41.63;27.50;;;27.60;99.90;;;;;;5072849;28;20024;-70
2023/03/28 00:10:50;;;;;;;33.25;23.95;;;27.60;99.90;;;;;;5070304;28;20530;-70
2023/03/28 00:13:18;;;;;;;27.38;23.83;;;27.60;99.90;;;;;;5073483;28;20358;-70
2023/03/28 00:15:45;;;;;;;34.55;24.45;;;27.70;99.90;;;;;;5070232;28;20110;-72
2023/03/28 00:18:12;;;;;;;32.45;25.65;;;27.70;99.90;;;;;;5052557;28;20491;-70
2023/03/28 00:20:42;;;;;;;36.35;26.52;;;27.70;99.90;;;;;;5071389;28;20473;-70
2023/03/28 00:23:10;;;;;;;44.28;27.52;;;27.70;99.90;;;;;;5063721;28;20145;-70
2023/03/28 00:25:40;;;;;;;40.80;28.58;;;27.60;99.90;;;;;;5072933;28;20082;-70
2023/03/28 00:28:07;;;;;;;48.50;28.17;;;27.70;99.90;;;;;;5072964;28;20052;-69
2023/03/28 00:30:34;;;;;;;39.63;27.40;;;27.60;99.90;;;;;;5073427;28;20035;-70
2023/03/28 00:33:00;;;;;;;36.95;26.92;;;27.70;99.90;;;;;;5073048;28;20025;-71
2023/03/28 00:35:27;;;;;;;42.28;29.70;;;27.70;99.90;;;;;;5072585;28;20029;-71
2023/03/28 00:37:56;;;;;;;46.55;30.98;;;27.80;99.90;;;;;;5072859;28;20037;-70
2023/03/28 00:40:24;;;;;;;40.97;28.50;;;27.70;99.90;;;;;;5072908;28;20028;-70
2023/03/28 00:42:52;;;;;;;39.45;27.58;;;27.80;99.90;;;;;;5073002;28;20393;-70
2023/03/28 00:45:22;;;;;;;40.50;26.52;;;27.80;99.90;;;;;;5072938;28;20020;-69
2023/03/28 00:47:51;;;;;;;36.13;26.08;;;27.80;99.90;;;;;;5072994;28;20036;-70
2023/03/28 00:50:39;;;;;;;35.90;26.27;;;27.90;99.90;;;;;;5073211;28;20021;-69
2023/03/28 00:53:12;;;;;;;42.05;30.08;;;27.80;99.90;;;;;;5073268;28;20020;-69
2023/03/28 00:55:48;;;;;;;37.65;29.33;;;27.80;99.90;;;;;;5073220;28;20075;-68
2023/03/28 00:58:22;;;;;;;40.55;28.92;;;27.80;99.90;;;;;;5074093;28;20020;-71
2023/03/28 01:00:51;;;;;;;41.60;30.30;;;27.80;99.90;;;;;;5076175;28;20378;-70
2023/03/28 01:03:18;;;;;;;38.83;27.92;;;27.90;99.90;;;;;;5055253;28;20033;-73
2023/03/28 01:05:46;;;;;;;44.97;30.88;;;27.90;99.90;;;;;;5038911;28;20032;-67
2023/03/28 01:08:20;;;;;;;36.33;27.83;;;28.00;99.90;;;;;;5036475;28;20111;-70
2023/03/28 01:10:47;;;;;;;41.08;30.17;;;28.10;99.90;;;;;;5036322;28;20034;-67
2023/03/28 01:13:16;;;;;;;34.20;24.02;;;28.10;99.90;;;;;;5036379;28;20026;-69
2023/03/28 01:15:44;;;;;;;32.67;24.10;;;28.20;99.90;;;;;;5036422;28;20104;-69
2023/03/28 01:18:11;;;;;;;33.60;24.48;;;28.20;99.90;;;;;;5036380;28;20415;-71
2023/03/28 01:20:58;;;;;;;34.70;23.15;;;28.20;99.90;;;;;;5067436;28;20021;-69
2023/03/28 01:23:33;;;;;;;29.80;22.25;;;28.20;99.90;;;;;;5073714;28;20035;-67
2023/03/28 01:26:19;;;;;;;29.15;22.75;;;28.30;99.90;;;;;;5076247;28;20033;-69
2023/03/28 01:28:55;;;;;;;34.05;22.13;;;28.30;99.90;;;;;;5068924;28;20036;-68
2023/03/28 01:31:35;;;;;;;30.00;22.50;;;28.30;99.90;;;;;;5076105;28;20040;-70
2023/03/28 01:34:19;;;;;;;29.70;22.15;;;28.30;99.90;;;;;;5075856;28;20070;-68
2023/03/28 01:36:58;;;;;;;29.77;21.85;;;28.40;99.90;;;;;;5075716;28;20102;-67
2023/03/28 01:39:28;;;;;;;31.70;21.02;;;28.40;99.90;;;;;;5075886;28;20027;-67
2023/03/28 01:42:07;;;;;;;29.10;23.67;;;28.40;99.90;;;;;;5075888;28;20397;-66
2023/03/28 01:44:56;;;;;;;27.20;19.90;;;28.40;99.90;;;;;;5075940;28;20047;-67
2023/03/28 01:47:28;;;;;;;31.50;22.98;;;28.50;99.90;;;;;;5069436;28;20040;-70
2023/03/28 01:49:55;;;;;;;31.52;22.63;;;28.50;99.90;;;;;;5076103;28;20075;-70
2023/03/28 01:52:29;;;;;;;27.77;20.23;;;28.50;99.90;;;;;;5065119;28;20049;-72
2023/03/28 01:55:30;;;;;;;27.90;17.48;;;28.50;99.90;;;;;;5041282;28;20025;-68
2023/03/28 01:58:10;;;;;;;32.28;24.20;;;28.50;99.90;;;;;;5036038;28;20026;-69
2023/03/28 02:00:42;;;;;;;48.08;38.17;;;28.60;99.90;;;;;;5036125;28;20030;-71
2023/03/28 02:03:27;;;;;;;46.77;36.57;;;28.70;99.90;;;;;;5043737;28;20378;-68
2023/03/28 02:05:56;;;;;;;42.47;33.97;;;28.70;99.90;;;;;;5055347;28;20484;-69
2023/03/28 02:08:28;;;;;;;41.70;35.25;;;28.70;99.90;;;;;;5055298;28;20029;-69
2023/03/28 02:10:54;;;;;;;;;;;28.70;99.90;;;;;;5054864;28;20082;-70
2023/03/28 02:13:29;;;;;;;54.20;40.88;;;28.80;99.90;;;;;;5055285;28;19905;-68
2023/03/28 02:15:58;;;;;;;76.18;49.53;;;28.90;99.90;;;;;;5055018;28;20032;-68
2023/03/28 02:18:33;;;;;;;216.73;106.85;;;28.90;99.90;;;;;;5055633;28;20508;-70
2023/03/28 02:21:06;;;;;;;67.32;37.95;;;28.90;99.90;;;;;;5061969;28;20390;-69
2023/03/28 02:23:38;;;;;;;34.65;28.23;;;28.90;99.90;;;;;;5059860;28;20190;-70
2023/03/28 02:26:05;;;;;;;50.70;33.47;;;28.90;99.90;;;;;;5048916;28;20151;-72
2023/03/28 02:28:33;;;;;;;37.50;30.30;;;29.00;99.90;;;;;;5034909;28;20037;-71
2023/03/28 02:31:01;;;;;;;61.92;41.13;;;29.10;99.90;;;;;;5035065;28;20041;-68
2023/03/28 02:33:43;;;;;;;39.08;23.98;;;29.10;99.90;;;;;;5035217;28;20022;-67
2023/03/28 02:36:22;;;;;;;26.50;23.17;;;29.10;99.90;;;;;;5034942;28;20038;-66
2023/03/28 02:39:10;;;;;;;28.30;18.95;;;29.20;99.90;;;;;;5034870;28;20029;-69
2023/03/28 02:41:58;;;;;;;23.85;16.38;;;29.30;99.90;;;;;;5034908;28;20045;-68
2023/03/28 02:44:45;;;;;;;76.93;39.95;;;29.40;99.90;;;;;;5033828;28;20544;-66
2023/03/28 02:47:35;;;;;;;23.45;12.95;;;29.50;99.90;;;;;;5045045;28;20024;-67
2023/03/28 02:50:11;;;;;;;18.27;12.20;;;29.50;99.90;;;;;;5063701;28;20025;-67
2023/03/28 02:52:39;;;;;;;18.58;11.82;;;29.60;99.90;;;;;;5063687;28;20041;-68
2023/03/28 02:55:12;;;;;;;13.70;10.90;;;29.70;99.90;;;;;;5074561;28;20029;-68
2023/03/28 02:58:10;;;;;;;13.65;9.88;;;29.70;99.90;;;;;;5068626;28;20537;-69
2023/03/28 03:00:38;;;;;;;20.35;13.57;;;29.90;99.90;;;;;;5064265;28;20036;-68
2023/03/28 03:03:09;;;;;;;15.00;12.32;;;29.90;99.90;;;;;;5063646;28;20025;-65
2023/03/28 03:05:36;;;;;;;18.48;14.05;;;30.00;99.90;;;;;;5063181;28;20035;-67
2023/03/28 03:08:03;;;;;;;19.98;13.98;;;30.00;99.90;;;;;;5061325;28;20029;-67
2023/03/28 03:10:30;;;;;;;16.48;13.65;;;30.00;99.90;;;;;;5063719;28;20385;-68
2023/03/28 03:12:56;;;;;;;17.23;12.85;;;30.10;99.90;;;;;;5064821;28;20398;-68
2023/03/28 03:15:24;;;;;;;13.30;11.27;;;30.10;99.90;;;;;;5063268;28;20036;-67
2023/03/28 03:17:51;;;;;;;18.20;13.18;;;30.20;99.90;;;;;;5063375;28;20112;-68
2023/03/28 03:20:18;;;;;;;17.73;13.98;;;30.20;99.90;;;;;;5064617;28;20016;-67
2023/03/28 03:22:44;;;;;;;16.85;14.30;;;30.20;99.90;;;;;;5063066;28;20394;-68
2023/03/28 03:25:11;;;;;;;18.42;14.18;;;30.40;99.90;;;;;;5063192;28;20085;-67
2023/03/28 03:27:39;;;;;;;19.42;14.70;;;30.40;99.90;;;;;;5064517;28;20025;-67
2023/03/28 03:30:07;;;;;;;27.08;16.90;;;30.50;99.90;;;;;;5063180;28;20478;-67
2023/03/28 03:32:33;;;;;;;18.33;12.90;;;30.50;99.90;;;;;;5062968;28;20027;-66
2023/03/28 03:35:00;;;;;;;12.75;9.55;;;30.50;99.90;;;;;;5064341;28;20012;-66
2023/03/28 03:37:26;;;;;;;58.20;22.75;;;30.60;99.90;;;;;;5063152;28;20060;-67
2023/03/28 03:39:53;;;;;;;18.20;11.20;;;30.70;99.90;;;;;;5060211;28;20017;-66
2023/03/28 03:42:20;;;;;;;28.27;12.57;;;30.80;99.90;;;;;;5064647;28;20044;-67
2023/03/28 03:44:46;;;;;;;15.65;9.38;;;30.90;99.90;;;;;;5063729;28;20028;-67
2023/03/28 03:47:13;;;;;;;10.10;7.50;;;31.00;99.90;;;;;;5063879;28;20028;-67
2023/03/28 03:49:40;;;;;;;10.75;7.53;;;31.00;99.90;;;;;;5062064;28;20032;-68
2023/03/28 03:52:09;;;;;;;13.35;7.75;;;31.00;99.90;;;;;;5063085;28;20047;-66
2023/03/28 03:54:36;;;;;;;12.27;8.23;;;30.90;99.90;;;;;;5064532;28;20033;-67
2023/03/28 03:57:02;;;;;;;13.45;7.10;;;30.90;99.90;;;;;;5059557;28;20025;-66
2023/03/28 03:59:29;;;;;;;8.48;7.05;;;31.00;99.90;;;;;;5063055;28;20024;-67
2023/03/28 04:01:56;;;;;;;8.73;6.35;;;31.20;99.90;;;;;;5061383;28;20036;-66
2023/03/28 04:04:23;;;;;;;9.32;6.68;;;31.20;99.90;;;;;;5055666;28;21446;-65
2023/03/28 04:06:49;;;;;;;10.60;7.82;;;31.20;99.90;;;;;;5073276;28;20032;-65
2023/03/28 04:09:16;;;;;;;9.38;7.40;;;31.20;99.90;;;;;;5073297;28;20032;-67
2023/03/28 04:11:43;;;;;;;16.75;8.05;;;31.20;99.90;;;;;;5072962;28;20028;-67
2023/03/28 04:14:09;;;;;;;14.05;8.05;;;31.20;99.90;;;;;;5073170;28;20021;-66
2023/03/28 04:16:36;;;;;;;31.67;12.00;;;31.20;99.90;;;;;;5070016;28;20063;-67
2023/03/28 04:19:04;;;;;;;18.52;9.25;;;31.30;99.90;;;;;;5061850;28;20028;-67
2023/03/28 04:21:34;;;;;;;19.17;9.45;;;31.40;99.90;;;;;;5070375;28;20480;-66
2023/03/28 04:24:00;;;;;;;25.75;10.80;;;31.40;99.90;;;;;;5069854;28;20486;-66
2023/03/28 04:26:34;;;;;;;9.88;7.03;;;31.40;99.90;;;;;;5052705;28;20036;-67
2023/03/28 04:29:02;;;;;;;13.68;7.55;;;31.50;99.90;;;;;;5055414;28;20028;-66
2023/03/28 04:31:29;;;;;;;20.05;15.25;;;31.50;99.90;;;;;;5053105;28;20021;-67
2023/03/28 04:33:56;;;;;;;10.73;7.85;;;31.60;99.90;;;;;;5057564;28;20132;-68
2023/03/28 04:36:24;;;;;;;10.02;8.50;;;31.70;99.90;;;;;;5059294;28;20486;-64
2023/03/28 04:38:51;;;;;;;12.23;7.10;;;31.70;99.90;;;;;;5059146;28;20029;-65
2023/03/28 04:41:18;;;;;;;14.90;9.02;;;31.80;99.90;;;;;;5058933;28;20025;-66
2023/03/28 04:43:45;;;;;;;8.82;7.13;;;31.80;99.90;;;;;;5073532;28;20032;-67
2023/03/28 04:46:11;;;;;;;11.32;6.35;;;32.00;99.90;;;;;;5073760;28;20028;-67
2023/03/28 04:48:38;;;;;;;10.70;6.97;;;32.00;99.90;;;;;;5073765;28;20082;-67
2023/03/28 04:51:05;;;;;;;66.57;31.17;;;32.00;99.90;;;;;;5072545;28;20372;-68
2023/03/28 04:53:31;;;;;;;10.88;7.18;;;32.10;99.90;;;;;;5066491;28;20025;-67
2023/03/28 04:55:58;;;;;;;89.45;38.50;;;32.20;99.90;;;;;;5065324;28;20028;-68
2023/03/28 04:58:25;;;;;;;29.00;15.32;;;32.20;99.90;;;;;;5062789;28;20017;-68
2023/03/28 05:00:52;;;;;;;10.02;5.53;;;32.30;99.90;;;;;;5066431;28;20017;-68
2023/03/28 05:03:21;;;;;;;9.40;6.30;;;32.40;99.90;;;;;;5067169;28;20067;-66
2023/03/28 05:05:51;;;;;;;10.27;6.10;;;32.40;99.90;;;;;;5059166;28;20033;-68
2023/03/28 05:08:21;;;;;;;14.13;8.48;;;32.40;99.90;;;;;;5056342;28;20033;-66
2023/03/28 05:10:49;;;;;;;34.78;17.13;;;32.40;99.90;;;;;;5061689;28;20067;-66
2023/03/28 05:13:15;;;;;;;11.00;7.55;;;32.40;99.90;;;;;;5065336;28;20021;-67
2023/03/28 05:15:42;;;;;;;10.45;6.38;;;32.50;99.90;;;;;;5063565;28;20017;-67
2023/03/28 05:18:10;;;;;;;11.50;7.90;;;32.50;99.90;;;;;;5065708;28;20043;-67
2023/03/28 05:20:37;;;;;;;13.50;8.70;;;32.50;99.90;;;;;;5067188;28;20032;-67
2023/03/28 05:23:05;;;;;;;14.38;9.15;;;32.40;99.90;;;;;;5063714;28;20033;-67
2023/03/28 05:25:32;;;;;;;16.95;11.60;;;32.30;99.90;;;;;;5064630;28;20031;-67
2023/03/28 05:27:59;;;;;;;11.48;9.35;;;32.30;99.90;;;;;;5066541;28;20035;-67
2023/03/28 05:30:26;;;;;;;13.15;10.23;;;32.20;99.90;;;;;;5064914;28;20179;-67
2023/03/28 05:32:52;;;;;;;12.75;8.10;;;32.20;99.90;;;;;;5062443;28;20404;-66
2023/03/28 05:35:19;;;;;;;12.95;8.30;;;32.20;99.90;;;;;;5065915;28;20031;-67
2023/03/28 05:37:46;;;;;;;11.00;7.90;;;32.20;99.90;;;;;;5066684;28;20056;-68
2023/03/28 05:40:14;;;;;;;17.52;9.50;;;32.30;99.90;;;;;;5064680;28;20017;-67
2023/03/28 05:42:41;;;;;;;15.38;9.55;;;32.20;99.90;;;;;;5066140;28;20054;-67
2023/03/28 05:45:11;;;;;;;14.38;10.85;;;32.20;99.90;;;;;;5065856;28;20032;-67
2023/03/28 05:47:38;;;;;;;16.00;10.20;;;32.20;99.90;;;;;;5061717;28;20037;-67
2023/03/28 05:50:05;;;;;;;17.30;12.90;;;32.20;99.90;;;;;;5064015;28;20445;-68
2023/03/28 05:52:31;;;;;;;29.75;18.45;;;32.20;99.90;;;;;;5066279;28;20038;-69
2023/03/28 05:54:58;;;;;;;26.90;18.40;;;32.20;99.90;;;;;;5066965;28;20024;-68
2023/03/28 05:57:25;;;;;;;22.65;15.85;;;32.30;99.90;;;;;;5065756;28;20370;-67
2023/03/28 05:59:52;;;;;;;25.38;16.73;;;32.30;99.90;;;;;;5065272;28;20028;-68
2023/03/28 06:02:20;;;;;;;20.33;18.15;;;32.30;99.90;;;;;;5066410;28;20017;-67
2023/03/28 06:04:47;;;;;;;24.60;19.05;;;32.30;99.90;;;;;;5065226;28;20129;-67
2023/03/28 06:07:14;;;;;;;23.42;19.98;;;32.30;99.90;;;;;;5064302;28;20046;-68
2023/03/28 06:09:41;;;;;;;29.42;20.30;;;32.30;99.90;;;;;;5061132;28;20021;-67
2023/03/28 06:12:08;;;;;;;32.60;26.17;;;32.40;99.90;;;;;;5063089;28;20013;-67
2023/03/28 06:14:34;;;;;;;27.58;23.33;;;32.50;99.90;;;;;;5061050;28;20032;-69
2023/03/28 06:17:01;;;;;;;23.00;20.48;;;32.50;99.90;;;;;;5065995;28;20378;-68
2023/03/28 06:19:27;;;;;;;23.05;20.15;;;32.50;99.90;;;;;;5063969;28;20020;-69
2023/03/28 06:21:54;;;;;;;22.23;18.23;;;32.50;99.90;;;;;;5065202;28;20031;-68
2023/03/28 06:24:21;;;;;;;21.42;19.15;;;32.50;99.90;;;;;;5063424;28;20025;-68
2023/03/28 06:26:47;;;;;;;20.83;15.15;;;32.60;99.90;;;;;;5064249;28;20103;-68
2023/03/28 06:29:15;;;;;;;19.90;16.23;;;32.60;99.90;;;;;;5065541;28;20415;-68
2023/03/28 06:31:42;;;;;;;16.73;14.98;;;32.70;99.90;;;;;;5064103;28;20025;-67
2023/03/28 06:34:08;;;;;;;21.30;16.88;;;32.70;99.90;;;;;;5065546;28;20109;-70
2023/03/28 06:36:35;;;;;;;18.83;14.95;;;32.80;99.90;;;;;;5063277;28;20505;-68
2023/03/28 06:39:01;;;;;;;19.95;15.18;;;32.80;99.90;;;;;;5062340;28;20115;-67
2023/03/28 06:41:28;;;;;;;23.83;13.52;;;32.90;99.90;;;;;;5065378;28;20046;-67
2023/03/28 06:43:54;;;;;;;14.73;11.85;;;32.90;99.90;;;;;;5064197;28;20028;-67
2023/03/28 06:46:21;;;;;;;12.95;11.15;;;32.90;99.90;;;;;;5063544;28;20020;-68
2023/03/28 06:48:47;;;;;;;12.18;9.20;;;32.90;99.90;;;;;;5062652;28;20158;-67
2023/03/28 06:51:14;;;;;;;11.25;8.65;;;32.90;99.90;;;;;;5067149;28;20017;-68
2023/03/28 06:53:40;;;;;;;16.88;8.68;;;32.90;99.90;;;;;;5064921;28;20109;-67
2023/03/28 06:56:08;;;;;;;17.27;9.20;;;32.90;99.90;;;;;;5063448;28;20016;-67
2023/03/28 06:58:34;;;;;;;17.20;8.40;;;32.90;99.90;;;;;;5062446;28;20099;-68
2023/03/28 07:01:01;;;;;;;13.30;8.23;;;33.00;99.90;;;;;;5062230;28;20466;-67
2023/03/28 07:03:28;;;;;;;11.45;7.60;;;32.90;99.90;;;;;;5063404;28;20024;-66
2023/03/28 07:05:55;;;;;;;10.05;6.32;;;32.90;99.90;;;;;;5063678;28;20075;-65
2023/03/28 07:08:22;;;;;;;6.53;5.80;;;32.90;99.90;;;;;;5057909;28;20105;-67
2023/03/28 07:10:49;;;;;;;5.63;5.03;;;32.80;99.90;;;;;;5063748;28;20024;-69
2023/03/28 07:13:15;;;;;;;7.43;4.78;;;32.80;99.90;;;;;;5062900;28;20363;-75
2023/03/28 07:15:42;;;;;;;5.35;4.45;;;32.90;99.90;;;;;;5064484;28;20464;-74
2023/03/28 07:18:09;;;;;;;10.85;5.95;;;32.90;99.90;;;;;;5062655;28;20021;-70
2023/03/28 07:20:40;;;;;;;13.30;6.60;;;33.00;99.90;;;;;;5062044;28;20044;-69
2023/03/28 07:23:06;;;;;;;12.63;7.05;;;33.00;99.90;;;;;;5068710;28;20024;-69
2023/03/28 07:25:33;;;;;;;13.25;6.75;;;33.00;99.90;;;;;;5072845;28;20025;-69
2023/03/28 07:28:00;;;;;;;12.32;6.78;;;33.10;99.90;;;;;;5072973;28;20037;-70
2023/03/28 07:30:27;;;;;;;8.93;5.90;;;33.10;99.90;;;;;;5073325;28;20465;-70
2023/03/28 07:32:53;;;;;;;5.95;5.20;;;33.20;99.90;;;;;;5073128;28;20028;-70
2023/03/28 07:35:20;;;;;;;6.13;5.05;;;33.30;99.90;;;;;;5073288;28;20021;-71
2023/03/28 07:37:47;;;;;;;7.28;4.90;;;33.20;99.90;;;;;;5073545;28;20051;-70
2023/03/28 07:40:14;;;;;;;5.03;4.47;;;33.30;99.90;;;;;;5073471;28;20029;-70
2023/03/28 07:42:40;;;;;;;7.20;4.68;;;33.30;99.90;;;;;;5073815;28;20032;-68
2023/03/28 07:45:08;;;;;;;4.75;3.97;;;33.30;99.90;;;;;;5073704;28;20020;-69
2023/03/28 07:47:34;;;;;;;4.93;4.20;;;33.50;99.90;;;;;;5073503;28;20047;-69
2023/03/28 07:50:01;;;;;;;6.90;3.45;;;33.50;99.90;;;;;;5073569;28;20381;-71
2023/03/28 07:52:27;;;;;;;6.07;3.75;;;33.50;99.90;;;;;;5073554;28;20052;-71
2023/03/28 07:54:54;;;;;;;5.30;4.57;;;33.50;99.90;;;;;;5073619;28;20078;-70
2023/03/28 07:57:20;;;;;;;8.00;4.10;;;33.60;99.90;;;;;;5073537;28;20031;-71
2023/03/28 07:59:49;;;;;;;6.97;4.82;;;33.60;99.90;;;;;;5073600;28;20021;-71
2023/03/28 08:02:16;;;;;;;5.75;4.78;;;33.70;99.90;;;;;;5073603;28;20044;-69
2023/03/28 08:04:42;;;;;;;6.70;5.07;;;33.80;99.90;;;;;;5073570;28;20024;-71
2023/03/28 08:07:09;;;;;;;6.93;4.90;;;33.90;99.90;;;;;;5073140;28;20021;-72
2023/03/28 08:09:36;;;;;;;8.02;5.60;;;33.90;99.90;;;;;;5072858;28;20020;-72
2023/03/28 08:12:02;;;;;;;6.82;4.70;;;33.80;99.90;;;;;;5073360;28;20025;-72
2023/03/28 08:14:29;;;;;;;5.82;4.45;;;33.80;99.90;;;;;;5054270;28;20017;-65
2023/03/28 08:16:55;;;;;;;8.75;4.60;;;33.80;99.90;;;;;;5037825;28;20045;-73
2023/03/28 08:19:22;;;;;;;5.20;3.78;;;33.90;99.90;;;;;;5033518;28;20359;-72
2023/03/28 08:21:48;;;;;;;4.32;3.55;;;33.80;99.90;;;;;;5033193;28;20529;-72
2023/03/28 08:24:15;;;;;;;9.77;4.70;;;33.90;99.90;;;;;;5033010;28;20025;-65
2023/03/28 08:26:42;;;;;;;8.43;3.65;;;33.90;99.90;;;;;;5033405;28;20235;-63
2023/03/28 08:29:08;;;;;;;4.07;3.60;;;33.80;99.90;;;;;;5033084;28;20452;-64
2023/03/28 08:31:35;;;;;;;4.30;3.88;;;33.80;99.90;;;;;;5033201;28;20025;-63
2023/03/28 08:34:01;;;;;;;5.10;3.25;;;33.90;99.90;;;;;;5033110;28;20529;-63
2023/03/28 08:36:28;;;;;;;5.28;4.35;;;33.90;99.90;;;;;;5033093;28;20048;-65
2023/03/28 08:38:59;;;;;;;4.35;3.35;;;33.90;99.90;;;;;;5033125;28;20113;-65
2023/03/28 08:41:40;;;;;;;4.30;3.22;;;33.90;99.90;;;;;;5033269;28;20046;-65
2023/03/28 08:44:08;;;;;;;5.03;3.25;;;34.00;99.90;;;;;;5033207;28;20032;-65
2023/03/28 08:46:39;;;;;;;4.22;3.20;;;34.00;99.90;;;;;;5032868;28;20108;-65
2023/03/28 08:49:10;;;;;;;4.75;3.47;;;34.00;99.60;;;;;;5040408;28;20040;-64
2023/03/28 08:51:41;;;;;;;5.47;4.85;;;33.90;98.90;;;;;;5035664;28;20156;-65
2023/03/28 08:54:19;;;;;;;7.28;3.28;;;33.90;99.90;;;;;;5033013;28;20437;-64
2023/03/28 08:56:52;;;;;;;4.85;3.58;;;33.90;99.90;;;;;;5033141;28;20120;-74
2023/03/28 08:59:31;;;;;;;6.75;4.63;;;33.90;99.40;;;;;;5048624;28;20052;-72
2023/03/28 09:01:57;;;;;;;11.65;7.57;;;33.90;99.90;;;;;;5052905;28;20421;-73
2023/03/28 09:04:33;;;;;;;6.70;5.25;;;33.80;99.90;;;;;;5052669;28;20028;-73
2023/03/28 09:07:26;;;;;;;12.60;6.80;;;33.80;99.90;;;;;;5052625;28;20025;-73
2023/03/28 09:10:10;;;;;;;19.13;7.53;;;33.80;99.90;;;;;;5052828;28;20388;-73
2023/03/28 09:12:50;;;;;;;13.07;8.57;;;33.70;99.90;;;;;;5040779;28;20105;-73
2023/03/28 09:15:21;;;;;;;8.05;6.45;;;33.70;99.90;;;;;;5039798;28;20032;-72
2023/03/28 09:18:05;;;;;;;9.25;6.93;;;33.70;99.90;;;;;;5044297;28;20100;-72
2023/03/28 09:20:44;;;;;;;17.95;11.68;;;33.70;99.90;;;;;;5035973;28;20053;-74
2023/03/28 09:23:50;;;;;;;9.90;7.30;;;33.70;99.90;;;;;;5036166;28;20414;-70
2023/03/28 09:26:23;;;;;;;11.27;6.53;;;33.70;99.90;;;;;;5036375;28;20025;-73
2023/03/28 09:28:50;;;;;;;13.40;6.78;;;33.70;99.90;;;;;;5036262;28;20063;-73
2023/03/28 09:31:19;;;;;;;7.22;5.55;;;33.70;99.90;;;;;;5036438;28;20041;-73
2023/03/28 09:33:49;;;;;;;14.60;7.43;;;33.60;99.90;;;;;;5036245;28;20025;-70
2023/03/28 09:36:29;;;;;;;14.00;8.27;;;33.60;99.90;;;;;;5036274;28;20041;-72
2023/03/28 09:39:06;;;;;;;9.20;5.53;;;33.60;99.90;;;;;;5035897;28;20120;-70
2023/03/28 09:41:51;;;;;;;9.88;6.03;;;33.60;99.50;;;;;;5044331;28;20021;-72
2023/03/28 09:44:24;;;;;;;8.43;5.75;;;33.60;99.60;;;;;;5047095;28;20040;-73
2023/03/28 09:46:54;;;;;;;8.45;6.20;;;33.60;99.30;;;;;;5035887;28;20075;-73
2023/03/28 09:49:23;;;;;;;9.35;5.68;;;33.60;99.20;;;;;;5038405;28;20494;-76
2023/03/28 09:51:55;;;;;;;12.57;6.53;;;33.60;99.50;;;;;;5035671;28;20152;-74
2023/03/28 09:54:35;;;;;;;10.73;6.00;;;33.50;99.80;;;;;;5035874;28;20021;-74
2023/03/28 09:57:03;;;;;;;8.35;6.05;;;33.60;99.60;;;;;;5049005;28;20424;-73
2023/03/28 09:59:32;;;;;;;11.60;6.93;;;33.60;99.30;;;;;;5055699;28;20107;-74
2023/03/28 10:02:01;;;;;;;13.98;8.30;;;33.50;99.60;;;;;;5055537;28;20025;-71
2023/03/28 10:04:28;;;;;;;13.13;7.28;;;33.60;99.50;;;;;;5055443;28;20024;-72
2023/03/28 10:07:18;;;;;;;13.50;7.40;;;33.50;99.60;;;;;;5055722;28;20036;-72
2023/03/28 10:09:49;;;;;;;12.00;7.65;;;33.50;99.60;;;;;;5055385;28;20470;-73
2023/03/28 10:12:23;;;;;;;9.77;6.83;;;33.50;99.40;;;;;;5051266;28;20064;-73
2023/03/28 10:14:50;;;;;;;14.30;9.15;;;33.40;99.30;;;;;;5035761;28;20378;-73
2023/03/28 10:17:22;;;;;;;19.40;9.00;;;33.40;99.80;;;;;;5035651;28;20036;-71
2023/03/28 10:19:50;;;;;;;13.07;8.50;;;33.40;99.80;;;;;;5045921;28;20147;-73
2023/03/28 10:22:31;;;;;;;22.15;9.77;;;33.40;99.60;;;;;;5055083;28;20470;-74
2023/03/28 10:24:58;;;;;;;17.27;9.35;;;33.40;99.60;;;;;;5055208;28;20035;-65
2023/03/28 10:27:31;;;;;;;18.40;9.52;;;33.40;99.80;;;;;;5055176;28;20055;-64
2023/03/28 10:30:08;;;;;;;13.35;9.13;;;33.30;99.90;;;;;;5055141;28;20448;-64
2023/03/28 10:32:35;;;;;;;18.30;11.07;;;33.20;99.90;;;;;;5054600;28;20043;-64
2023/03/28 10:35:08;;;;;;;20.33;11.90;;;33.20;99.90;;;;;;5054807;28;20398;-65
2023/03/28 10:37:35;;;;;;;23.60;10.98;;;33.20;99.90;;;;;;5054595;28;20498;-65
2023/03/28 10:40:06;;;;;;;22.38;10.05;;;33.10;99.90;;;;;;5054786;28;20440;-65
2023/03/28 10:42:44;;;;;;;14.63;9.43;;;33.10;99.90;;;;;;5054887;28;20029;-65
2023/03/28 10:45:20;;;;;;;16.88;9.88;;;33.00;99.90;;;;;;5055630;28;20040;-66
2023/03/28 10:47:50;;;;;;;37.00;20.02;;;33.00;99.90;;;;;;5065266;28;20031;-64
2023/03/28 10:50:40;;;;;;;56.63;30.67;;;32.90;99.90;;;;;;5072938;28;20037;-66
2023/03/28 10:53:15;;;;;;;91.95;47.38;;;32.90;99.90;;;;;;5073910;28;20032;-65
2023/03/28 10:56:07;;;;;;;157.82;81.93;;;32.90;99.90;;;;;;5074573;28;20048;-66
2023/03/28 10:58:46;;;;;;;135.15;68.80;;;32.90;99.90;;;;;;5054811;28;20371;-65
2023/03/28 11:01:18;;;;;;;82.88;42.38;;;32.80;99.90;;;;;;5072339;28;20021;-69
2023/03/28 11:03:50;;;;;;;35.88;20.20;;;32.80;99.90;;;;;;5074484;28;20114;-68
2023/03/28 11:06:17;;;;;;;34.28;18.50;;;32.70;99.90;;;;;;5074504;28;20054;-67
2023/03/28 11:09:12;;;;;;;39.40;22.95;;;32.70;99.90;;;;;;5074369;28;20021;-67
2023/03/28 11:11:44;;;;;;;31.27;17.33;;;32.70;99.90;;;;;;5052884;28;20048;-68
2023/03/28 11:14:51;;;;;;;31.80;19.38;;;32.60;99.90;;;;;;5038167;28;20057;-68
2023/03/28 11:17:37;;;;;;;62.00;39.40;;;32.40;99.90;;;;;;5014630;28;20482;-70
2023/03/28 11:20:16;;;;;;;53.80;35.63;;;32.40;99.90;;;;;;5059968;28;20418;-68
2023/03/28 11:22:52;;;;;;;51.63;33.22;;;32.40;99.90;;;;;;5053855;28;20032;-69
2023/03/28 11:25:44;;;;;;;38.33;27.75;;;32.50;99.90;;;;;;5053679;28;20104;-67
2023/03/28 11:28:13;;;;;;;40.58;26.95;;;32.30;99.90;;;;;;5066138;28;20109;-69
2023/03/28 11:30:42;;;;;;;35.05;24.92;;;32.20;99.90;;;;;;5053182;28;20441;-72
2023/03/28 11:33:32;;;;;;;130.93;86.85;;;32.20;99.90;;;;;;5061056;28;20112;-67
2023/03/28 11:36:04;;;;;;;33.70;20.55;;;32.20;99.90;;;;;;5062789;28;20059;-68
2023/03/28 11:38:38;;;;;;;23.63;15.35;;;32.30;99.90;;;;;;5063794;28;20060;-69
2023/03/28 11:41:13;;;;;;;26.05;15.20;;;32.20;99.90;;;;;;5060559;28;20021;-68
2023/03/28 11:43:49;;;;;;;27.40;15.93;;;32.20;99.90;;;;;;5057461;28;20028;-67
2023/03/28 11:46:29;;;;;;;25.52;17.45;;;32.20;99.90;;;;;;5061243;28;20273;-68
2023/03/28 11:48:59;;;;;;;24.33;14.80;;;32.10;99.90;;;;;;5062218;28;20033;-70
2023/03/28 11:51:33;;;;;;;151.80;118.00;;;32.00;99.90;;;;;;5064916;28;20029;-68
2023/03/28 11:54:28;;;;;;;60.63;41.35;;;31.90;99.90;;;;;;5059255;28;20128;-68
2023/03/28 11:57:07;;;;;;;52.30;36.85;;;31.90;99.90;;;;;;5043527;28;20033;-68
2023/03/28 12:00:03;;;;;;;42.05;27.45;;;31.90;99.90;;;;;;5062907;28;20033;-67
2023/03/28 12:02:30;;;;;;;28.20;16.55;;;32.00;99.90;;;;;;5060082;28;20021;-70
2023/03/28 12:05:18;;;;;;;22.92;13.60;;;31.90;99.90;;;;;;5062965;28;20030;-68
2023/03/28 12:08:07;;;;;;;19.40;10.55;;;31.90;99.90;;;;;;5053799;28;20076;-70
2023/03/28 12:10:35;;;;;;;19.38;10.57;;;31.80;99.90;;;;;;5061491;28;20035;-69
2023/03/28 12:13:22;;;;;;;19.73;11.00;;;31.70;99.90;;;;;;5061158;28;20104;-69
2023/03/28 12:16:08;;;;;;;20.50;11.20;;;31.70;99.90;;;;;;5047821;28;20055;-68
2023/03/28 12:18:47;;;;;;;28.20;13.48;;;31.70;99.90;;;;;;5088315;23;20080;-67
2023/03/28 12:21:21;;;;;;;20.42;10.57;;;31.60;99.90;;;;;;5085044;28;20040;-68
2023/03/28 12:24:17;;;;;;;15.18;10.30;;;31.50;99.90;;;;;;5075392;28;20534;-66
2023/03/28 12:27:00;;;;;;;18.58;9.18;;;31.40;99.90;;;;;;5058724;28;20080;-68
2023/03/28 12:29:29;;;;;;;14.98;8.73;;;31.40;99.90;;;;;;5060198;28;20297;-67
2023/03/28 12:32:33;;;;;;;13.25;8.38;;;31.30;99.90;;;;;;5060732;28;20111;-68
2023/03/28 12:35:13;;;;;;;70.97;52.60;;;31.30;99.90;;;;;;5050493;28;20079;-68
2023/03/28 12:38:05;;;;;;;43.67;29.10;;;31.30;99.90;;;;;;5056295;28;20013;-65
2023/03/28 12:40:47;;;;;;;35.10;27.42;;;31.20;99.90;;;;;;5060127;28;20788;-67
2023/03/28 12:43:17;;;;;;;20.92;10.38;;;31.20;99.90;;;;;;5055957;28;20179;-67
2023/03/28 12:45:51;;;;;;;16.70;10.80;;;31.10;99.90;;;;;;5061025;28;20028;-66
2023/03/28 12:48:41;;;;;;;17.10;8.60;;;31.00;99.90;;;;;;5058305;28;20598;-67
2023/03/28 12:51:17;;;;;;;12.57;8.82;;;30.80;99.90;;;;;;5060860;28;20059;-65
2023/03/28 12:53:58;;;;;;;11.85;7.72;;;30.80;99.90;;;;;;5060748;28;20464;-66
2023/03/28 12:56:25;;;;;;;16.15;8.70;;;30.80;99.90;;;;;;5064028;28;20100;-66